Los Angeles, CA (90051)

9:28 PM PDT on September 16, 2014 (GMT -0700)
Downtown Los Angeles | Change Station
CLOSE
Current Station
Personal Weather Station
Location: Los Angeles, CA
Elevation: 343 ft
Nearby Weather Stations

Elev 343 ft 34.06 °N, 118.26 °W | Updated 1 minute ago

Clear
Clear
83.2 °F
Feels Like 84 °F
N
1.0
Wind Variable Wind from West
Gusts 7.0 mph

Today
High -- | Low -- °F
--% Chance of Precip.
Yesterday
High -- | Low -- °F
Precip. -- in
6:36 AM 6:58 PM
Last Quarter, 39% visible
Pressure 29.70 in
Visibility 10.0 miles
Clouds Clear
Heat Index 84 °F
Dew Point 62 °F
Humidity 49%
Rainfall 0.00 in
Snow Depth 0 in , 1 in , 1 in
UV 0 out of 12
Pollen 6.80 out of 12
Ozone Good
PM2.5 Moderate
Flu Activity Not available.
METAR KCQT 170347Z AUTO 00000KT 10SM CLR 27/15 A2971 RMK AO2 SLP058 T02670150

More Conditions Fewer Conditions

Pressure 29.70 in
Visibility 10.0 miles
Clouds Clear
Heat Index 84 °F
Dew Point 62 °F
Humidity 49%
Rainfall 0.00 in
Snow Depth 0 in , 1 in , 1 in
UV 0 out of 12
Pollen 6.80 out of 12
Ozone Good
PM2.5 Moderate
Flu Activity Not available.
METAR KCQT 170347Z AUTO 00000KT 10SM CLR 27/15 A2971 RMK AO2 SLP058 T02670150

More Conditions Fewer Conditions

10-Day Weather Forecast

Almanac

Astronomy

Sep. 16, 2014 Rise Set
Actual Time 6:36 AM PDT 6:58 PM PDT
Civil Twilight 6:11 AM PDT 7:23 PM PDT
Nautical Twilight 5:42 AM PDT 7:52 PM PDT
Astronomical Twilight 5:12 AM PDT 8:22 PM PDT
Moon 12:02 AM PDT (9/16) 2:14 PM PDT (9/16)
Length of Visible Light 13h 11m
Length of Day
12h 21m
Tomorrow will be 2m 7s shorter.
Last Quarter, 39% of the Moon is Illuminated
Sep 17
Last Quarter
Sep 24
New
Oct 1
First Quarter
Oct 8
Full
Oct 15
Last Quarter

Today's Extremes

State Highs State Lows

Community

WunderPhotos

Upload Photos

1,753,965 photos uploaded!

Nearby

Air Quality

  Air Quality AQ Index Pollutant
Yesterday Good
PM10
Yesterday Good
OZONE
Current Moderate
PM2.5
Current Good
OZONE
Wednesday Good
PM10
Wednesday Moderate
OZONE
Wednesday Good
CO
Wednesday Good
NO2

Snow Depth

Station Depth Elevation
Leavitt Meadows 0 in 7200 ft
Adin Mountain 1 in 6200 ft
Summit Meadow 1 in 9122 ft
Spratt Creek 0 in 6200 ft
Leavitt Lake 0 in 9400 ft

Earthquake Activity

City Distance Mag. Time & Date
La Quinta, California 109 miles 2.7 8:59 PM PDT
2014-09-15
Inyokern, California 128 miles 3.2 5:56 PM PDT
2014-09-14
San Jacinto, California 75 miles 3.0 3:16 PM PDT
2014-09-14
Minimum magnitude displayed is 2.5.

Coastal Water Temperatures

Place Temperature
Santa Monica Pier 73.0 °F
Los Angeles, CA 70.0 °F
La Jolla, CA 66.0 °F

Nearby Weather Stations